sensor_id;sensor_type;location;lat;lon;timestamp;P1;durP1;ratioP1;P2;durP2;ratioP2
50355;SDS011;36264;51.296;-0.602;2023-02-13T00:00:41;12.13;;;7.43;;
50355;SDS011;36264;51.296;-0.602;2023-02-13T00:03:06;11.15;;;6.85;;
50355;SDS011;36264;51.296;-0.602;2023-02-13T00:05:32;12.50;;;6.10;;
50355;SDS011;36264;51.296;-0.602;2023-02-13T00:07:57;9.93;;;6.53;;
50355;SDS011;36264;51.296;-0.602;2023-02-13T00:10:22;11.40;;;7.13;;
50355;SDS011;36264;51.296;-0.602;2023-02-13T00:12:48;10.05;;;6.18;;
50355;SDS011;36264;51.296;-0.602;2023-02-13T00:15:13;13.68;;;6.85;;
50355;SDS011;36264;51.296;-0.602;2023-02-13T00:17:38;11.25;;;7.03;;
50355;SDS011;36264;51.296;-0.602;2023-02-13T00:20:04;13.05;;;7.57;;
50355;SDS011;36264;51.296;-0.602;2023-02-13T00:22:33;10.23;;;6.28;;
50355;SDS011;36264;51.296;-0.602;2023-02-13T00:25:01;12.00;;;7.20;;
50355;SDS011;36264;51.296;-0.602;2023-02-13T00:27:27;11.75;;;7.13;;
50355;SDS011;36264;51.296;-0.602;2023-02-13T00:29:52;12.23;;;7.20;;
50355;SDS011;36264;51.296;-0.602;2023-02-13T00:32:17;11.70;;;7.57;;
50355;SDS011;36264;51.296;-0.602;2023-02-13T00:34:43;10.98;;;7.05;;
50355;SDS011;36264;51.296;-0.602;2023-02-13T00:37:08;11.95;;;7.63;;
50355;SDS011;36264;51.296;-0.602;2023-02-13T00:39:34;12.48;;;7.60;;
50355;SDS011;36264;51.296;-0.602;2023-02-13T00:41:59;12.15;;;7.00;;
50355;SDS011;36264;51.296;-0.602;2023-02-13T00:44:24;12.25;;;7.43;;
50355;SDS011;36264;51.296;-0.602;2023-02-13T00:46:50;12.57;;;7.38;;
50355;SDS011;36264;51.296;-0.602;2023-02-13T00:49:15;12.70;;;7.75;;
50355;SDS011;36264;51.296;-0.602;2023-02-13T00:51:40;13.88;;;7.50;;
50355;SDS011;36264;51.296;-0.602;2023-02-13T00:54:06;11.63;;;7.40;;
50355;SDS011;36264;51.296;-0.602;2023-02-13T00:56:31;12.35;;;7.47;;
50355;SDS011;36264;51.296;-0.602;2023-02-13T00:58:56;10.95;;;6.75;;
50355;SDS011;36264;51.296;-0.602;2023-02-13T01:01:22;9.70;;;6.13;;
50355;SDS011;36264;51.296;-0.602;2023-02-13T01:03:47;12.32;;;7.25;;
50355;SDS011;36264;51.296;-0.602;2023-02-13T01:06:12;10.90;;;7.20;;
50355;SDS011;36264;51.296;-0.602;2023-02-13T01:08:38;12.55;;;7.43;;
50355;SDS011;36264;51.296;-0.602;2023-02-13T01:11:04;11.30;;;6.93;;
50355;SDS011;36264;51.296;-0.602;2023-02-13T01:13:30;11.88;;;7.20;;
50355;SDS011;36264;51.296;-0.602;2023-02-13T01:15:56;12.82;;;8.02;;
50355;SDS011;36264;51.296;-0.602;2023-02-13T01:18:21;13.23;;;8.60;;
50355;SDS011;36264;51.296;-0.602;2023-02-13T01:21:00;13.38;;;8.55;;
50355;SDS011;36264;51.296;-0.602;2023-02-13T01:23:31;12.48;;;7.97;;
50355;SDS011;36264;51.296;-0.602;2023-02-13T01:25:57;18.67;;;9.70;;
50355;SDS011;36264;51.296;-0.602;2023-02-13T01:28:23;13.38;;;8.25;;
50355;SDS011;36264;51.296;-0.602;2023-02-13T01:30:52;13.50;;;9.18;;
50355;SDS011;36264;51.296;-0.602;2023-02-13T01:33:18;14.48;;;8.88;;
50355;SDS011;36264;51.296;-0.602;2023-02-13T01:35:44;14.50;;;9.10;;
50355;SDS011;36264;51.296;-0.602;2023-02-13T01:38:09;15.32;;;9.63;;
50355;SDS011;36264;51.296;-0.602;2023-02-13T01:40:34;14.15;;;8.65;;
50355;SDS011;36264;51.296;-0.602;2023-02-13T01:43:00;20.90;;;11.38;;
50355;SDS011;36264;51.296;-0.602;2023-02-13T01:45:28;16.83;;;10.43;;
50355;SDS011;36264;51.296;-0.602;2023-02-13T01:52:56;14.40;;;8.77;;
50355;SDS011;36264;51.296;-0.602;2023-02-13T01:55:23;15.20;;;9.18;;
50355;SDS011;36264;51.296;-0.602;2023-02-13T01:57:53;17.23;;;10.13;;
50355;SDS011;36264;51.296;-0.602;2023-02-13T02:00:26;16.45;;;9.52;;
50355;SDS011;36264;51.296;-0.602;2023-02-13T02:02:54;19.63;;;10.88;;
50355;SDS011;36264;51.296;-0.602;2023-02-13T02:05:23;15.68;;;9.50;;
50355;SDS011;36264;51.296;-0.602;2023-02-13T02:07:53;15.80;;;10.32;;
50355;SDS011;36264;51.296;-0.602;2023-02-13T02:10:22;16.50;;;10.75;;
50355;SDS011;36264;51.296;-0.602;2023-02-13T02:15:22;17.73;;;11.00;;
50355;SDS011;36264;51.296;-0.602;2023-02-13T02:17:47;18.52;;;11.13;;
50355;SDS011;36264;51.296;-0.602;2023-02-13T02:22:48;16.88;;;11.05;;
50355;SDS011;36264;51.296;-0.602;2023-02-13T02:39:38;17.13;;;10.07;;
50355;SDS011;36264;51.296;-0.602;2023-02-13T02:46:05;15.40;;;9.98;;
50355;SDS011;36264;51.296;-0.602;2023-02-13T02:54:15;18.35;;;10.07;;
50355;SDS011;36264;51.296;-0.602;2023-02-13T02:57:09;16.30;;;10.18;;
50355;SDS011;36264;51.296;-0.602;2023-02-13T02:59:39;14.48;;;9.43;;
50355;SDS011;36264;51.296;-0.602;2023-02-13T03:02:26;14.30;;;9.70;;
50355;SDS011;36264;51.296;-0.602;2023-02-13T03:05:20;14.60;;;9.35;;
50355;SDS011;36264;51.296;-0.602;2023-02-13T03:08:07;15.23;;;9.35;;
50355;SDS011;36264;51.296;-0.602;2023-02-13T03:10:34;16.02;;;9.45;;
50355;SDS011;36264;51.296;-0.602;2023-02-13T03:13:36;16.05;;;9.63;;
50355;SDS011;36264;51.296;-0.602;2023-02-13T03:16:09;13.77;;;8.88;;
50355;SDS011;36264;51.296;-0.602;2023-02-13T03:18:58;14.93;;;8.82;;
50355;SDS011;36264;51.296;-0.602;2023-02-13T03:21:58;16.08;;;9.80;;
50355;SDS011;36264;51.296;-0.602;2023-02-13T03:27:28;16.15;;;9.70;;
50355;SDS011;36264;51.296;-0.602;2023-02-13T03:30:26;17.45;;;10.98;;
50355;SDS011;36264;51.296;-0.602;2023-02-13T03:33:32;19.02;;;11.20;;
50355;SDS011;36264;51.296;-0.602;2023-02-13T03:36:03;16.92;;;10.50;;
50355;SDS011;36264;51.296;-0.602;2023-02-13T03:41:26;16.95;;;10.20;;
50355;SDS011;36264;51.296;-0.602;2023-02-13T03:46:36;25.42;;;11.32;;
50355;SDS011;36264;51.296;-0.602;2023-02-13T03:49:06;18.02;;;11.68;;
50355;SDS011;36264;51.296;-0.602;2023-02-13T03:54:20;18.60;;;11.70;;
50355;SDS011;36264;51.296;-0.602;2023-02-13T03:57:10;19.17;;;10.18;;
50355;SDS011;36264;51.296;-0.602;2023-02-13T04:00:00;24.85;;;11.65;;
50355;SDS011;36264;51.296;-0.602;2023-02-13T04:02:28;17.20;;;10.48;;
50355;SDS011;36264;51.296;-0.602;2023-02-13T04:05:03;20.55;;;12.15;;
50355;SDS011;36264;51.296;-0.602;2023-02-13T04:07:34;21.42;;;12.27;;
50355;SDS011;36264;51.296;-0.602;2023-02-13T04:10:02;21.85;;;12.48;;
50355;SDS011;36264;51.296;-0.602;2023-02-13T04:15:30;21.08;;;12.43;;
50355;SDS011;36264;51.296;-0.602;2023-02-13T04:18:20;19.02;;;11.43;;
50355;SDS011;36264;51.296;-0.602;2023-02-13T04:20:47;19.67;;;12.23;;
50355;SDS011;36264;51.296;-0.602;2023-02-13T04:23:13;16.80;;;11.30;;
50355;SDS011;36264;51.296;-0.602;2023-02-13T04:25:40;21.95;;;13.32;;
50355;SDS011;36264;51.296;-0.602;2023-02-13T04:28:09;19.30;;;12.25;;
50355;SDS011;36264;51.296;-0.602;2023-02-13T04:30:34;19.55;;;12.05;;
50355;SDS011;36264;51.296;-0.602;2023-02-13T04:33:00;23.65;;;13.13;;
50355;SDS011;36264;51.296;-0.602;2023-02-13T04:35:25;20.67;;;12.27;;
50355;SDS011;36264;51.296;-0.602;2023-02-13T04:37:50;20.55;;;12.48;;
50355;SDS011;36264;51.296;-0.602;2023-02-13T04:40:16;19.42;;;11.68;;
50355;SDS011;36264;51.296;-0.602;2023-02-13T04:42:41;21.60;;;12.35;;
50355;SDS011;36264;51.296;-0.602;2023-02-13T04:45:07;19.23;;;12.73;;
50355;SDS011;36264;51.296;-0.602;2023-02-13T04:47:33;21.15;;;13.02;;
50355;SDS011;36264;51.296;-0.602;2023-02-13T04:49:58;22.27;;;13.43;;
50355;SDS011;36264;51.296;-0.602;2023-02-13T04:52:23;20.65;;;12.82;;
50355;SDS011;36264;51.296;-0.602;2023-02-13T04:54:49;22.10;;;13.60;;
50355;SDS011;36264;51.296;-0.602;2023-02-13T04:57:14;22.02;;;13.85;;
50355;SDS011;36264;51.296;-0.602;2023-02-13T04:59:40;23.83;;;14.88;;
50355;SDS011;36264;51.296;-0.602;2023-02-13T05:02:05;24.58;;;14.75;;
50355;SDS011;36264;51.296;-0.602;2023-02-13T05:04:31;25.17;;;14.10;;
50355;SDS011;36264;51.296;-0.602;2023-02-13T05:06:56;22.15;;;13.23;;
50355;SDS011;36264;51.296;-0.602;2023-02-13T05:09:22;24.05;;;13.95;;
50355;SDS011;36264;51.296;-0.602;2023-02-13T05:11:49;22.65;;;13.73;;
50355;SDS011;36264;51.296;-0.602;2023-02-13T05:14:16;24.80;;;14.43;;
50355;SDS011;36264;51.296;-0.602;2023-02-13T05:16:41;21.48;;;13.73;;
50355;SDS011;36264;51.296;-0.602;2023-02-13T05:19:07;24.55;;;15.02;;
50355;SDS011;36264;51.296;-0.602;2023-02-13T05:21:32;23.25;;;13.90;;
50355;SDS011;36264;51.296;-0.602;2023-02-13T05:24:16;23.73;;;14.73;;
50355;SDS011;36264;51.296;-0.602;2023-02-13T05:26:41;21.35;;;13.00;;
50355;SDS011;36264;51.296;-0.602;2023-02-13T05:29:07;24.23;;;15.10;;
50355;SDS011;36264;51.296;-0.602;2023-02-13T05:34:17;28.23;;;15.80;;
50355;SDS011;36264;51.296;-0.602;2023-02-13T05:36:43;24.60;;;14.00;;
50355;SDS011;36264;51.296;-0.602;2023-02-13T05:39:08;23.92;;;14.13;;
50355;SDS011;36264;51.296;-0.602;2023-02-13T05:41:34;27.60;;;15.52;;
50355;SDS011;36264;51.296;-0.602;2023-02-13T05:43:59;25.30;;;14.68;;
50355;SDS011;36264;51.296;-0.602;2023-02-13T05:46:25;28.75;;;16.45;;
50355;SDS011;36264;51.296;-0.602;2023-02-13T05:48:50;26.67;;;14.93;;
50355;SDS011;36264;51.296;-0.602;2023-02-13T05:51:17;26.73;;;15.80;;
50355;SDS011;36264;51.296;-0.602;2023-02-13T05:53:43;25.80;;;16.48;;
50355;SDS011;36264;51.296;-0.602;2023-02-13T05:56:08;27.63;;;17.25;;
50355;SDS011;36264;51.296;-0.602;2023-02-13T05:58:33;28.20;;;16.13;;
50355;SDS011;36264;51.296;-0.602;2023-02-13T06:00:59;27.00;;;15.40;;
50355;SDS011;36264;51.296;-0.602;2023-02-13T06:03:25;27.15;;;16.30;;
50355;SDS011;36264;51.296;-0.602;2023-02-13T06:05:52;25.80;;;15.32;;
50355;SDS011;36264;51.296;-0.602;2023-02-13T06:08:19;30.58;;;16.85;;
50355;SDS011;36264;51.296;-0.602;2023-02-13T06:10:45;25.92;;;15.93;;
50355;SDS011;36264;51.296;-0.602;2023-02-13T06:13:11;27.25;;;16.30;;
50355;SDS011;36264;51.296;-0.602;2023-02-13T06:15:36;27.70;;;15.85;;
50355;SDS011;36264;51.296;-0.602;2023-02-13T06:18:02;30.83;;;17.85;;
50355;SDS011;36264;51.296;-0.602;2023-02-13T06:20:27;27.83;;;16.25;;
50355;SDS011;36264;51.296;-0.602;2023-02-13T06:22:53;30.58;;;17.40;;
50355;SDS011;36264;51.296;-0.602;2023-02-13T06:25:18;27.67;;;16.83;;
50355;SDS011;36264;51.296;-0.602;2023-02-13T06:27:44;27.00;;;16.48;;
50355;SDS011;36264;51.296;-0.602;2023-02-13T06:30:10;31.27;;;17.27;;
50355;SDS011;36264;51.296;-0.602;2023-02-13T06:32:36;28.40;;;17.17;;
50355;SDS011;36264;51.296;-0.602;2023-02-13T06:35:01;30.33;;;17.15;;
50355;SDS011;36264;51.296;-0.602;2023-02-13T06:37:27;31.15;;;17.45;;
50355;SDS011;36264;51.296;-0.602;2023-02-13T06:39:52;36.40;;;19.20;;
50355;SDS011;36264;51.296;-0.602;2023-02-13T06:42:17;32.70;;;18.48;;
50355;SDS011;36264;51.296;-0.602;2023-02-13T06:44:43;30.63;;;18.15;;
50355;SDS011;36264;51.296;-0.602;2023-02-13T06:47:08;32.50;;;18.15;;
50355;SDS011;36264;51.296;-0.602;2023-02-13T06:49:34;33.28;;;18.60;;
50355;SDS011;36264;51.296;-0.602;2023-02-13T06:51:59;30.45;;;17.50;;
50355;SDS011;36264;51.296;-0.602;2023-02-13T06:54:25;26.52;;;15.48;;
50355;SDS011;36264;51.296;-0.602;2023-02-13T06:56:50;32.55;;;18.75;;
50355;SDS011;36264;51.296;-0.602;2023-02-13T06:59:15;29.92;;;16.70;;
50355;SDS011;36264;51.296;-0.602;2023-02-13T07:01:41;31.20;;;17.67;;
50355;SDS011;36264;51.296;-0.602;2023-02-13T07:04:06;29.25;;;16.70;;
50355;SDS011;36264;51.296;-0.602;2023-02-13T07:06:31;29.27;;;16.95;;
50355;SDS011;36264;51.296;-0.602;2023-02-13T07:08:57;29.30;;;16.13;;
50355;SDS011;36264;51.296;-0.602;2023-02-13T07:11:22;29.88;;;17.38;;
50355;SDS011;36264;51.296;-0.602;2023-02-13T07:13:49;30.65;;;16.73;;
50355;SDS011;36264;51.296;-0.602;2023-02-13T07:16:14;28.33;;;15.18;;
50355;SDS011;36264;51.296;-0.602;2023-02-13T07:18:40;29.20;;;15.35;;
50355;SDS011;36264;51.296;-0.602;2023-02-13T07:21:06;30.17;;;16.02;;
50355;SDS011;36264;51.296;-0.602;2023-02-13T07:23:31;25.95;;;14.45;;
50355;SDS011;36264;51.296;-0.602;2023-02-13T07:26:00;28.45;;;15.80;;
50355;SDS011;36264;51.296;-0.602;2023-02-13T07:28:29;28.63;;;15.98;;
50355;SDS011;36264;51.296;-0.602;2023-02-13T07:30:55;27.75;;;15.80;;
50355;SDS011;36264;51.296;-0.602;2023-02-13T07:33:21;29.58;;;16.23;;
50355;SDS011;36264;51.296;-0.602;2023-02-13T07:35:47;27.67;;;16.40;;
50355;SDS011;36264;51.296;-0.602;2023-02-13T07:38:14;27.92;;;15.57;;
50355;SDS011;36264;51.296;-0.602;2023-02-13T07:40:39;29.33;;;15.23;;
50355;SDS011;36264;51.296;-0.602;2023-02-13T07:43:05;28.23;;;15.07;;
50355;SDS011;36264;51.296;-0.602;2023-02-13T07:45:30;26.65;;;14.90;;
50355;SDS011;36264;51.296;-0.602;2023-02-13T07:47:55;30.23;;;15.00;;
50355;SDS011;36264;51.296;-0.602;2023-02-13T07:50:21;26.55;;;15.18;;
50355;SDS011;36264;51.296;-0.602;2023-02-13T07:52:56;26.65;;;14.95;;
50355;SDS011;36264;51.296;-0.602;2023-02-13T07:55:22;26.27;;;15.20;;
50355;SDS011;36264;51.296;-0.602;2023-02-13T07:57:48;31.08;;;15.35;;
50355;SDS011;36264;51.296;-0.602;2023-02-13T08:00:14;31.73;;;16.52;;
50355;SDS011;36264;51.296;-0.602;2023-02-13T08:02:40;28.52;;;15.25;;
50355;SDS011;36264;51.296;-0.602;2023-02-13T08:05:06;28.50;;;15.73;;
50355;SDS011;36264;51.296;-0.602;2023-02-13T08:07:33;31.33;;;16.52;;
50355;SDS011;36264;51.296;-0.602;2023-02-13T08:09:59;35.05;;;17.17;;
50355;SDS011;36264;51.296;-0.602;2023-02-13T08:12:43;30.73;;;17.02;;
50355;SDS011;36264;51.296;-0.602;2023-02-13T08:15:10;33.28;;;16.15;;
50355;SDS011;36264;51.296;-0.602;2023-02-13T08:17:36;30.10;;;16.13;;
50355;SDS011;36264;51.296;-0.602;2023-02-13T08:20:02;32.40;;;16.85;;
50355;SDS011;36264;51.296;-0.602;2023-02-13T08:22:28;31.17;;;16.35;;
50355;SDS011;36264;51.296;-0.602;2023-02-13T08:24:53;34.15;;;18.08;;
50355;SDS011;36264;51.296;-0.602;2023-02-13T08:27:19;33.45;;;17.70;;
50355;SDS011;36264;51.296;-0.602;2023-02-13T08:29:44;37.47;;;17.90;;
50355;SDS011;36264;51.296;-0.602;2023-02-13T08:32:09;31.42;;;17.35;;
50355;SDS011;36264;51.296;-0.602;2023-02-13T08:34:35;32.20;;;17.20;;
50355;SDS011;36264;51.296;-0.602;2023-02-13T08:37:01;30.55;;;17.42;;
50355;SDS011;36264;51.296;-0.602;2023-02-13T08:39:27;34.80;;;17.50;;
50355;SDS011;36264;51.296;-0.602;2023-02-13T08:41:52;31.27;;;17.13;;
50355;SDS011;36264;51.296;-0.602;2023-02-13T08:44:18;32.15;;;17.90;;
50355;SDS011;36264;51.296;-0.602;2023-02-13T08:46:43;35.38;;;18.48;;
50355;SDS011;36264;51.296;-0.602;2023-02-13T08:49:09;33.20;;;18.00;;
50355;SDS011;36264;51.296;-0.602;2023-02-13T08:51:34;29.08;;;16.55;;
50355;SDS011;36264;51.296;-0.602;2023-02-13T08:53:59;33.63;;;17.85;;
50355;SDS011;36264;51.296;-0.602;2023-02-13T08:56:25;32.28;;;17.70;;
50355;SDS011;36264;51.296;-0.602;2023-02-13T08:58:50;35.65;;;19.30;;
50355;SDS011;36264;51.296;-0.602;2023-02-13T09:01:15;32.13;;;17.55;;
50355;SDS011;36264;51.296;-0.602;2023-02-13T09:03:41;30.95;;;17.73;;
50355;SDS011;36264;51.296;-0.602;2023-02-13T09:06:06;35.15;;;19.25;;
50355;SDS011;36264;51.296;-0.602;2023-02-13T09:08:33;33.10;;;17.67;;
50355;SDS011;36264;51.296;-0.602;2023-02-13T09:11:00;34.08;;;18.27;;
50355;SDS011;36264;51.296;-0.602;2023-02-13T09:13:28;36.20;;;19.33;;
50355;SDS011;36264;51.296;-0.602;2023-02-13T09:15:56;35.90;;;20.13;;
50355;SDS011;36264;51.296;-0.602;2023-02-13T09:18:23;32.58;;;18.20;;
50355;SDS011;36264;51.296;-0.602;2023-02-13T09:20:49;34.00;;;19.60;;
50355;SDS011;36264;51.296;-0.602;2023-02-13T09:23:14;32.25;;;17.23;;
50355;SDS011;36264;51.296;-0.602;2023-02-13T09:25:39;30.63;;;17.10;;
50355;SDS011;36264;51.296;-0.602;2023-02-13T09:28:05;31.60;;;17.45;;
50355;SDS011;36264;51.296;-0.602;2023-02-13T09:30:30;32.40;;;17.50;;
50355;SDS011;36264;51.296;-0.602;2023-02-13T09:32:56;32.58;;;18.60;;
50355;SDS011;36264;51.296;-0.602;2023-02-13T09:35:21;30.23;;;15.93;;
50355;SDS011;36264;51.296;-0.602;2023-02-13T09:37:47;31.63;;;17.13;;
50355;SDS011;36264;51.296;-0.602;2023-02-13T09:40:29;33.08;;;17.50;;
50355;SDS011;36264;51.296;-0.602;2023-02-13T09:43:04;31.77;;;17.83;;
50355;SDS011;36264;51.296;-0.602;2023-02-13T09:45:35;30.42;;;17.38;;
50355;SDS011;36264;51.296;-0.602;2023-02-13T09:48:02;34.08;;;18.35;;
50355;SDS011;36264;51.296;-0.602;2023-02-13T09:50:30;31.65;;;18.02;;
50355;SDS011;36264;51.296;-0.602;2023-02-13T09:52:59;30.30;;;17.05;;
50355;SDS011;36264;51.296;-0.602;2023-02-13T09:55:29;32.40;;;17.65;;
50355;SDS011;36264;51.296;-0.602;2023-02-13T10:00:43;27.10;;;14.77;;
50355;SDS011;36264;51.296;-0.602;2023-02-13T10:06:07;33.28;;;17.80;;
50355;SDS011;36264;51.296;-0.602;2023-02-13T10:08:58;26.40;;;15.30;;
50355;SDS011;36264;51.296;-0.602;2023-02-13T10:14:16;28.05;;;15.35;;
50355;SDS011;36264;51.296;-0.602;2023-02-13T10:22:33;24.95;;;14.80;;
50355;SDS011;36264;51.296;-0.602;2023-02-13T10:27:41;26.70;;;13.85;;
50355;SDS011;36264;51.296;-0.602;2023-02-13T10:32:46;26.23;;;13.85;;
50355;SDS011;36264;51.296;-0.602;2023-02-13T10:35:20;23.50;;;13.93;;
50355;SDS011;36264;51.296;-0.602;2023-02-13T10:37:50;29.17;;;16.27;;
50355;SDS011;36264;51.296;-0.602;2023-02-13T10:40:19;23.45;;;14.18;;
50355;SDS011;36264;51.296;-0.602;2023-02-13T10:53:18;21.10;;;12.40;;
50355;SDS011;36264;51.296;-0.602;2023-02-13T10:56:06;21.23;;;12.18;;
50355;SDS011;36264;51.296;-0.602;2023-02-13T10:58:50;18.30;;;10.73;;
50355;SDS011;36264;51.296;-0.602;2023-02-13T11:01:37;17.75;;;11.00;;
50355;SDS011;36264;51.296;-0.602;2023-02-13T11:04:17;18.30;;;11.05;;
50355;SDS011;36264;51.296;-0.602;2023-02-13T11:06:59;16.80;;;11.10;;
50355;SDS011;36264;51.296;-0.602;2023-02-13T11:09:26;16.15;;;10.07;;
50355;SDS011;36264;51.296;-0.602;2023-02-13T11:11:54;16.52;;;10.35;;
50355;SDS011;36264;51.296;-0.602;2023-02-13T11:14:25;18.13;;;10.93;;
50355;SDS011;36264;51.296;-0.602;2023-02-13T11:24:55;19.73;;;10.73;;
50355;SDS011;36264;51.296;-0.602;2023-02-13T11:27:26;17.20;;;9.82;;
50355;SDS011;36264;51.296;-0.602;2023-02-13T11:32:22;18.48;;;11.20;;
50355;SDS011;36264;51.296;-0.602;2023-02-13T11:34:49;16.58;;;10.13;;
50355;SDS011;36264;51.296;-0.602;2023-02-13T11:37:25;19.05;;;10.02;;
50355;SDS011;36264;51.296;-0.602;2023-02-13T11:39:53;16.33;;;9.85;;
50355;SDS011;36264;51.296;-0.602;2023-02-13T11:42:28;15.73;;;9.00;;
50355;SDS011;36264;51.296;-0.602;2023-02-13T11:45:04;19.92;;;11.20;;
50355;SDS011;36264;51.296;-0.602;2023-02-13T11:47:43;15.23;;;9.63;;
50355;SDS011;36264;51.296;-0.602;2023-02-13T11:50:23;15.55;;;10.30;;
50355;SDS011;36264;51.296;-0.602;2023-02-13T11:53:03;14.23;;;9.07;;
50355;SDS011;36264;51.296;-0.602;2023-02-13T11:55:36;13.23;;;8.73;;
50355;SDS011;36264;51.296;-0.602;2023-02-13T11:58:21;18.25;;;10.30;;
50355;SDS011;36264;51.296;-0.602;2023-02-13T12:00:48;16.40;;;10.13;;
50355;SDS011;36264;51.296;-0.602;2023-02-13T12:06:05;15.82;;;9.52;;
50355;SDS011;36264;51.296;-0.602;2023-02-13T12:08:33;15.60;;;9.50;;
50355;SDS011;36264;51.296;-0.602;2023-02-13T12:11:00;14.73;;;9.63;;
50355;SDS011;36264;51.296;-0.602;2023-02-13T12:13:34;15.43;;;8.98;;
50355;SDS011;36264;51.296;-0.602;2023-02-13T12:16:04;15.32;;;8.93;;
50355;SDS011;36264;51.296;-0.602;2023-02-13T12:18:43;14.93;;;9.57;;
50355;SDS011;36264;51.296;-0.602;2023-02-13T12:21:19;15.18;;;9.32;;
50355;SDS011;36264;51.296;-0.602;2023-02-13T12:23:53;13.07;;;8.73;;
50355;SDS011;36264;51.296;-0.602;2023-02-13T12:34:28;16.20;;;9.57;;
50355;SDS011;36264;51.296;-0.602;2023-02-13T12:39:58;15.25;;;9.95;;
50355;SDS011;36264;51.296;-0.602;2023-02-13T12:48:07;13.18;;;8.93;;
50355;SDS011;36264;51.296;-0.602;2023-02-13T12:58:25;15.82;;;9.23;;
50355;SDS011;36264;51.296;-0.602;2023-02-13T13:06:50;16.33;;;8.80;;
50355;SDS011;36264;51.296;-0.602;2023-02-13T13:12:18;12.85;;;7.93;;
50355;SDS011;36264;51.296;-0.602;2023-02-13T13:17:45;13.43;;;8.32;;
50355;SDS011;36264;51.296;-0.602;2023-02-13T13:22:51;12.88;;;7.68;;
50355;SDS011;36264;51.296;-0.602;2023-02-13T13:28:18;15.55;;;8.40;;
50355;SDS011;36264;51.296;-0.602;2023-02-13T13:30:47;11.25;;;7.82;;
50355;SDS011;36264;51.296;-0.602;2023-02-13T13:33:21;11.73;;;7.32;;
50355;SDS011;36264;51.296;-0.602;2023-02-13T13:38:22;13.60;;;8.57;;
50355;SDS011;36264;51.296;-0.602;2023-02-13T13:46:46;13.32;;;7.57;;
50355;SDS011;36264;51.296;-0.602;2023-02-13T13:49:16;10.65;;;7.05;;
50355;SDS011;36264;51.296;-0.602;2023-02-13T13:51:49;11.40;;;6.75;;
50355;SDS011;36264;51.296;-0.602;2023-02-13T13:59:17;13.38;;;7.63;;
50355;SDS011;36264;51.296;-0.602;2023-02-13T14:04:44;11.43;;;7.65;;
50355;SDS011;36264;51.296;-0.602;2023-02-13T14:07:32;9.20;;;6.70;;
50355;SDS011;36264;51.296;-0.602;2023-02-13T14:10:00;12.70;;;7.88;;
50355;SDS011;36264;51.296;-0.602;2023-02-13T14:14:54;11.63;;;6.95;;
50355;SDS011;36264;51.296;-0.602;2023-02-13T14:25:43;11.25;;;7.70;;
50355;SDS011;36264;51.296;-0.602;2023-02-13T14:28:16;11.95;;;7.43;;
50355;SDS011;36264;51.296;-0.602;2023-02-13T14:30:51;11.55;;;7.00;;
50355;SDS011;36264;51.296;-0.602;2023-02-13T14:33:29;11.25;;;7.05;;
50355;SDS011;36264;51.296;-0.602;2023-02-13T14:36:03;12.88;;;7.53;;
50355;SDS011;36264;51.296;-0.602;2023-02-13T14:38:32;12.10;;;7.75;;
50355;SDS011;36264;51.296;-0.602;2023-02-13T14:40:59;12.65;;;7.30;;
50355;SDS011;36264;51.296;-0.602;2023-02-13T14:46:29;13.63;;;7.75;;
50355;SDS011;36264;51.296;-0.602;2023-02-13T14:51:39;10.93;;;7.05;;
50355;SDS011;36264;51.296;-0.602;2023-02-13T14:54:17;11.88;;;7.40;;
50355;SDS011;36264;51.296;-0.602;2023-02-13T14:56:51;13.85;;;8.50;;
50355;SDS011;36264;51.296;-0.602;2023-02-13T14:59:20;11.73;;;7.75;;
50355;SDS011;36264;51.296;-0.602;2023-02-13T15:01:53;11.38;;;7.50;;
50355;SDS011;36264;51.296;-0.602;2023-02-13T15:06:54;14.38;;;8.07;;
50355;SDS011;36264;51.296;-0.602;2023-02-13T15:09:34;12.90;;;8.43;;
50355;SDS011;36264;51.296;-0.602;2023-02-13T15:12:03;12.43;;;7.70;;
50355;SDS011;36264;51.296;-0.602;2023-02-13T15:14:48;14.55;;;8.63;;
50355;SDS011;36264;51.296;-0.602;2023-02-13T15:17:46;13.98;;;7.80;;
50355;SDS011;36264;51.296;-0.602;2023-02-13T15:20:19;11.52;;;7.43;;
50355;SDS011;36264;51.296;-0.602;2023-02-13T15:22:49;13.25;;;8.77;;
50355;SDS011;36264;51.296;-0.602;2023-02-13T15:25:22;11.68;;;7.60;;
50355;SDS011;36264;51.296;-0.602;2023-02-13T15:27:59;15.48;;;8.18;;
50355;SDS011;36264;51.296;-0.602;2023-02-13T15:30:28;12.48;;;7.75;;
50355;SDS011;36264;51.296;-0.602;2023-02-13T15:32:57;12.38;;;7.50;;
50355;SDS011;36264;51.296;-0.602;2023-02-13T15:35:25;14.50;;;8.13;;
50355;SDS011;36264;51.296;-0.602;2023-02-13T15:37:53;13.18;;;8.07;;
50355;SDS011;36264;51.296;-0.602;2023-02-13T15:40:29;11.48;;;7.40;;
50355;SDS011;36264;51.296;-0.602;2023-02-13T15:42:59;13.70;;;8.05;;
50355;SDS011;36264;51.296;-0.602;2023-02-13T15:45:26;12.65;;;7.50;;
50355;SDS011;36264;51.296;-0.602;2023-02-13T15:47:53;10.63;;;6.57;;
50355;SDS011;36264;51.296;-0.602;2023-02-13T15:52:57;10.70;;;6.88;;
50355;SDS011;36264;51.296;-0.602;2023-02-13T15:55:25;14.90;;;7.38;;
50355;SDS011;36264;51.296;-0.602;2023-02-13T15:57:53;12.80;;;7.35;;
50355;SDS011;36264;51.296;-0.602;2023-02-13T16:02:56;11.30;;;6.90;;
50355;SDS011;36264;51.296;-0.602;2023-02-13T16:05:23;11.32;;;6.18;;
50355;SDS011;36264;51.296;-0.602;2023-02-13T16:10:23;12.05;;;6.88;;
50355;SDS011;36264;51.296;-0.602;2023-02-13T16:12:50;10.98;;;6.88;;
50355;SDS011;36264;51.296;-0.602;2023-02-13T16:15:17;11.45;;;6.50;;
50355;SDS011;36264;51.296;-0.602;2023-02-13T16:17:45;11.43;;;6.80;;
50355;SDS011;36264;51.296;-0.602;2023-02-13T16:22:38;11.50;;;6.00;;
50355;SDS011;36264;51.296;-0.602;2023-02-13T16:30:03;12.95;;;6.95;;
50355;SDS011;36264;51.296;-0.602;2023-02-13T16:32:32;9.77;;;5.65;;
50355;SDS011;36264;51.296;-0.602;2023-02-13T16:40:36;9.57;;;5.55;;
50355;SDS011;36264;51.296;-0.602;2023-02-13T16:43:46;11.68;;;6.57;;
50355;SDS011;36264;51.296;-0.602;2023-02-13T16:48:42;11.82;;;6.60;;
50355;SDS011;36264;51.296;-0.602;2023-02-13T16:54:30;13.90;;;7.60;;
50355;SDS011;36264;51.296;-0.602;2023-02-13T17:02:27;11.80;;;6.18;;
50355;SDS011;36264;51.296;-0.602;2023-02-13T17:07:32;10.00;;;6.43;;
50355;SDS011;36264;51.296;-0.602;2023-02-13T17:10:04;9.80;;;6.43;;
50355;SDS011;36264;51.296;-0.602;2023-02-13T17:12:30;11.35;;;6.22;;
50355;SDS011;36264;51.296;-0.602;2023-02-13T17:15:01;9.82;;;5.93;;
50355;SDS011;36264;51.296;-0.602;2023-02-13T17:17:27;11.32;;;5.78;;
50355;SDS011;36264;51.296;-0.602;2023-02-13T17:19:55;9.82;;;5.72;;
50355;SDS011;36264;51.296;-0.602;2023-02-13T17:22:28;10.98;;;5.80;;
50355;SDS011;36264;51.296;-0.602;2023-02-13T17:24:57;9.27;;;4.95;;
50355;SDS011;36264;51.296;-0.602;2023-02-13T17:27:23;10.05;;;6.35;;
50355;SDS011;36264;51.296;-0.602;2023-02-13T17:29:49;12.73;;;5.97;;
50355;SDS011;36264;51.296;-0.602;2023-02-13T17:32:18;9.85;;;5.60;;
50355;SDS011;36264;51.296;-0.602;2023-02-13T17:34:46;11.13;;;5.78;;
50355;SDS011;36264;51.296;-0.602;2023-02-13T17:39:50;12.65;;;6.63;;
50355;SDS011;36264;51.296;-0.602;2023-02-13T17:42:18;13.98;;;6.00;;
50355;SDS011;36264;51.296;-0.602;2023-02-13T17:44:46;11.00;;;6.15;;
50355;SDS011;36264;51.296;-0.602;2023-02-13T17:47:12;10.35;;;6.07;;
50355;SDS011;36264;51.296;-0.602;2023-02-13T17:49:37;11.70;;;6.53;;
50355;SDS011;36264;51.296;-0.602;2023-02-13T17:52:03;10.52;;;6.15;;
50355;SDS011;36264;51.296;-0.602;2023-02-13T17:54:28;10.75;;;6.18;;
50355;SDS011;36264;51.296;-0.602;2023-02-13T17:56:53;10.75;;;6.18;;